Time;durP1;ratioP1;P1;durP2;ratioP2;P2;SDS_P1;SDS_P2;PMS_P1;PMS_P2;Temp;Humidity;BMP_temperature;BMP_pressure;BME280_temperature;BME280_humidity;BME280_pressure;Samples;Min_cycle;Max_cycle;Signal;HPM_P1;HPM_P2
2022/01/02 00:00:34;;;;;;;28.65;17.07;;;;;;;9.76;90.67;101422.56;1639151;85;21044;-77
2022/01/02 00:03:03;;;;;;;29.72;16.97;;;;;;;9.74;90.66;101420.41;1645325;85;20974;-77
2022/01/02 00:05:35;;;;;;;40.20;18.90;;;;;;;9.72;90.65;101416.97;1644180;85;21159;-77
2022/01/02 00:08:07;;;;;;;34.38;18.92;;;;;;;9.72;90.69;101410.51;1644924;85;21091;-77
2022/01/02 00:10:37;;;;;;;34.80;19.02;;;;;;;9.70;90.65;101403.19;1629363;87;21072;-78
2022/01/02 00:13:06;;;;;;;38.55;20.02;;;;;;;9.69;90.65;101378.66;1639009;86;21622;-78
2022/01/02 00:15:33;;;;;;;36.33;19.85;;;;;;;9.66;90.63;101352.41;1644196;87;21139;-78
2022/01/02 00:18:08;;;;;;;39.23;19.30;;;;;;;9.65;90.66;101369.19;1639491;85;21005;-78
2022/01/02 00:20:32;;;;;;;29.40;17.80;;;;;;;9.63;90.68;101384.25;1639427;87;21532;-78
2022/01/02 00:23:08;;;;;;;34.20;18.60;;;;;;;9.64;90.72;101391.56;1635093;86;20997;-78
2022/01/02 00:25:40;;;;;;;36.13;20.73;;;;;;;9.55;90.76;101369.61;1643905;85;21088;-78
2022/01/02 00:28:06;;;;;;;34.35;19.17;;;;;;;9.55;90.76;101369.61;1645695;87;21502;-78
2022/01/02 00:30:33;;;;;;;29.60;18.12;;;;;;;9.66;90.74;101400.61;1640144;86;21008;-78
2022/01/02 00:33:01;;;;;;;31.45;18.32;;;;;;;9.66;90.73;101416.96;1653793;85;21588;-78
2022/01/02 00:35:28;;;;;;;33.55;18.20;;;;;;;9.64;90.70;101414.81;1630519;85;21096;-78
2022/01/02 00:37:54;;;;;;;31.40;17.82;;;;;;;9.65;90.68;101410.50;1636137;87;21478;-78
2022/01/02 00:40:20;;;;;;;32.77;17.77;;;;;;;9.65;90.74;101401.03;1644133;87;21520;-78
2022/01/02 00:42:54;;;;;;;42.83;27.25;;;;;;;9.65;90.76;101394.58;1650689;85;21100;-78
2022/01/02 00:45:27;;;;;;;29.42;17.62;;;;;;;9.65;90.73;101393.29;1638988;87;21096;-78
2022/01/02 00:48:10;;;;;;;30.85;16.90;;;;;;;9.65;90.70;101393.29;1652777;85;20965;-78
2022/01/02 00:50:52;;;;;;;28.80;17.10;;;;;;;9.63;90.71;101403.62;1641046;86;20957;-78
2022/01/02 00:53:23;;;;;;;29.10;16.32;;;;;;;9.63;90.69;101388.12;1637003;87;20977;-78
2022/01/02 00:55:57;;;;;;;31.60;17.55;;;;;;;9.63;90.68;101385.97;1646578;85;20974;-78
2022/01/02 00:58:30;;;;;;;30.02;17.20;;;;;;;9.63;90.72;101382.09;1639037;87;20902;-78
2022/01/02 01:01:00;;;;;;;25.30;17.77;;;;;;;9.63;90.71;101375.64;1644029;86;20941;-79
2022/01/02 01:03:31;;;;;;;31.55;17.60;;;;;;;9.62;90.68;101368.76;1638234;85;20977;-78
2022/01/02 01:06:02;;;;;;;26.93;15.78;;;;;;;9.60;90.64;101362.73;1645825;87;20913;-78
2022/01/02 01:08:32;;;;;;;30.60;16.07;;;;;;;9.60;90.66;101375.64;1645842;86;20902;-78
2022/01/02 01:11:00;;;;;;;25.97;17.10;;;;;;;9.57;90.65;101373.92;1634172;85;20933;-78
2022/01/02 01:13:26;;;;;;;24.72;16.37;;;;;;;9.58;90.70;101370.91;1625865;87;20941;-78
2022/01/02 01:15:52;;;;;;;25.10;18.73;;;;;;;9.57;90.65;101372.63;1646195;85;20983;-78
2022/01/02 01:18:18;;;;;;;28.40;17.02;;;;;;;9.56;90.65;101367.03;1645831;87;20933;-78
2022/01/02 01:20:45;;;;;;;29.37;16.97;;;;;;;9.55;90.68;101369.61;1635443;83;269575;-78
2022/01/02 01:23:17;;;;;;;26.48;19.42;;;;;;;9.56;90.68;101363.59;1650876;85;21005;-78
2022/01/02 01:25:46;;;;;;;22.65;16.42;;;;;;;9.55;90.68;101361.44;1628306;85;21084;-78
2022/01/02 01:28:14;;;;;;;28.27;15.85;;;;;;;9.56;90.71;101363.59;1624428;87;21655;-78
2022/01/02 01:30:40;;;;;;;23.35;15.68;;;;;;;9.56;90.72;101362.30;1611994;87;21592;-78
2022/01/02 01:33:06;;;;;;;29.75;16.42;;;;;;;9.55;90.68;101352.83;1657422;85;21072;-78
2022/01/02 01:35:34;;;;;;;27.43;17.60;;;;;;;9.55;90.70;101349.82;1619078;87;21742;-78
2022/01/02 01:38:01;;;;;;;27.50;16.05;;;;;;;9.55;90.70;101349.82;1641144;86;21978;-78
2022/01/02 01:40:35;;;;;;;21.75;15.00;;;;;;;9.56;90.72;101350.25;1644456;86;21140;-78
2022/01/02 01:43:03;;;;;;;27.00;16.27;;;;;;;9.58;90.74;101348.96;1630687;85;21520;-78
2022/01/02 01:45:30;;;;;;;27.17;16.07;;;;;;;9.58;90.76;101354.98;1651757;85;21604;-78
2022/01/02 01:48:01;;;;;;;30.25;16.67;;;;;;;9.61;90.77;101356.28;1639804;86;21152;-78
2022/01/02 01:50:42;;;;;;;26.37;15.30;;;;;;;9.62;90.78;101358.42;1637346;85;21658;-78
2022/01/02 01:53:10;;;;;;;27.02;16.30;;;;;;;9.62;90.73;101355.84;1645700;86;21032;-79
2022/01/02 01:55:38;;;;;;;27.90;16.32;;;;;;;9.63;90.76;101335.63;1644716;85;21588;-79
2022/01/02 01:58:06;;;;;;;30.43;17.23;;;;;;;9.63;90.74;101329.16;1637707;85;21537;-79
2022/01/02 02:00:33;;;;;;;27.52;16.57;;;;;;;9.63;90.76;101318.41;1640044;87;21537;-79
2022/01/02 02:03:01;;;;;;;27.13;15.95;;;;;;;9.65;90.75;101309.80;1644419;86;21048;-78
2022/01/02 02:05:27;;;;;;;30.45;27.02;;;;;;;9.66;90.74;101312.81;1633020;87;20965;-78
2022/01/02 02:07:54;;;;;;;37.17;26.25;;;;;;;9.66;90.74;101303.77;1650641;85;21667;-78
2022/01/02 02:10:26;;;;;;;35.50;22.17;;;;;;;9.66;90.72;101291.72;1652697;85;21043;-78
2022/01/02 02:12:57;;;;;;;64.40;57.60;;;;;;;9.65;90.75;101279.67;1630203;86;21266;-78
2022/01/02 02:15:24;;;;;;;27.17;16.85;;;;;;;9.66;90.74;101273.64;1634356;85;21634;-79
2022/01/02 02:17:51;;;;;;;;;;;;;;;9.66;90.72;101258.58;1625981;87;21100;-79
2022/01/02 02:20:23;;;;;;;23.27;15.58;;;;;;;9.63;90.69;101257.72;1646183;86;20458;-79
2022/01/02 02:22:55;;;;;;;30.08;16.23;;;;;;;9.62;90.68;101256.01;1648691;85;20977;-79
2022/01/02 02:25:26;;;;;;;30.08;14.68;;;;;;;9.60;90.65;101245.25;1632965;85;21426;-79
2022/01/02 02:27:57;;;;;;;27.90;15.45;;;;;;;9.59;90.68;101244.83;1642898;86;21517;-79
2022/01/02 02:30:25;;;;;;;23.30;14.95;;;;;;;9.57;90.66;101241.39;1641532;85;20993;-79
2022/01/02 02:32:54;;;;;;;25.92;14.55;;;;;;;9.55;90.68;101242.68;1626581;85;20949;-79
2022/01/02 02:35:20;;;;;;;24.87;14.00;;;;;;;9.54;90.67;101234.50;1637813;87;21576;-78
2022/01/02 02:37:47;;;;;;;21.15;14.43;;;;;;;9.54;90.72;101246.55;1641864;86;21568;-78
2022/01/02 02:40:17;;;;;;;23.92;13.90;;;;;;;9.53;90.68;101243.11;1642555;85;20910;-78
2022/01/02 02:51:10;;;;;;;21.62;12.80;;;;;;;9.49;90.55;101230.21;1645522;85;21528;-78
2022/01/02 02:53:41;;;;;;;24.00;13.72;;;;;;;9.47;90.67;101230.22;1635003;87;22173;-78
2022/01/02 02:56:23;;;;;;;21.70;13.10;;;;;;;9.44;90.63;101231.51;1627887;86;20997;-79
2022/01/02 02:58:50;;;;;;;26.93;13.95;;;;;;;9.42;90.64;101228.07;1639634;86;21065;-79
2022/01/02 03:01:22;;;;;;;21.90;13.08;;;;;;;9.41;90.62;101226.78;1620959;87;21176;-78
2022/01/02 03:03:48;;;;;;;26.20;13.32;;;;;;;9.38;90.60;101217.75;1616798;88;22267;-78
2022/01/02 03:06:16;;;;;;;25.70;12.88;;;;;;;9.35;90.64;101207.46;1621598;86;21536;-78
2022/01/02 03:08:44;;;;;;;19.20;12.58;;;;;;;9.32;90.58;101199.30;1622765;86;22293;-78
2022/01/02 03:11:16;;;;;;;19.52;12.58;;;;;;;9.28;90.60;101193.70;1626069;87;21373;-78
2022/01/02 03:13:43;;;;;;;17.85;12.70;;;;;;;9.25;90.58;101183.39;1631068;86;20934;-78
2022/01/02 03:16:09;;;;;;;23.47;12.98;;;;;;;9.22;90.60;101167.48;1626029;86;21439;-78
2022/01/02 03:18:37;;;;;;;20.95;12.40;;;;;;;9.19;90.58;101164.05;1628685;88;21414;-78
2022/01/02 03:21:03;;;;;;;;;;;;;;;9.17;90.61;101152.86;1627759;88;20942;-78
2022/01/02 03:23:29;;;;;;;25.02;12.53;;;;;;;9.16;90.65;101149.86;1631229;87;20172;-78
2022/01/02 03:25:55;;;;;;;22.93;12.47;;;;;;;9.14;90.66;101149.00;1631370;86;20946;-78
2022/01/02 03:28:21;;;;;;;20.52;12.80;;;;;;;9.13;90.69;101146.85;1627104;87;21233;-78
2022/01/02 03:30:47;;;;;;;17.23;13.13;;;;;;;9.13;90.69;101140.40;1614086;88;20946;-78
2022/01/02 03:33:13;;;;;;;20.48;12.75;;;;;;;9.13;90.71;101140.83;1631032;87;20934;-78
2022/01/02 03:35:40;;;;;;;21.23;12.43;;;;;;;9.13;90.74;101142.98;1632221;86;20974;-78
2022/01/02 03:38:06;;;;;;;19.50;12.73;;;;;;;9.17;90.87;101141.25;1626577;87;20985;-78
2022/01/02 03:40:32;;;;;;;17.60;13.08;;;;;;;9.17;90.87;101141.25;1629392;87;21273;-78
2022/01/02 03:42:58;;;;;;;21.93;12.70;;;;;;;9.16;90.72;101136.52;1619097;86;20911;-78
2022/01/02 03:45:25;;;;;;;20.95;12.58;;;;;;;9.17;90.67;101134.38;1638705;86;20966;-78
2022/01/02 03:47:51;;;;;;;21.25;12.80;;;;;;;9.16;90.66;101126.64;1621805;86;20926;-78
2022/01/02 03:50:18;;;;;;;20.08;11.38;;;;;;;9.15;90.65;101116.75;1628331;87;20994;-78
2022/01/02 03:52:44;;;;;;;20.50;12.35;;;;;;;9.15;90.64;101124.48;1647957;86;20879;-78
2022/01/02 03:55:11;;;;;;;22.60;12.17;;;;;;;9.12;90.60;101115.89;1643334;86;20907;-78
2022/01/02 03:57:37;;;;;;;;;;;;;;;9.11;90.62;101118.91;1617321;88;20931;-78
2022/01/02 04:00:08;;;;;;;19.27;12.23;;;;;;;9.10;90.64;101115.89;1612261;88;20142;-78
2022/01/02 04:02:37;;;;;;;22.62;12.55;;;;;;;9.08;90.59;101104.72;1621723;86;20990;-78
2022/01/02 04:05:03;;;;;;;18.87;12.13;;;;;;;9.06;90.61;101102.58;1632383;86;20978;-78
2022/01/02 04:07:28;;;;;;;16.73;10.95;;;;;;;9.06;90.64;101106.45;1600205;88;21077;-78
2022/01/02 04:09:54;;;;;;;19.70;12.33;;;;;;;9.05;90.60;101114.19;1631340;87;20965;-78
2022/01/02 04:12:20;;;;;;;15.80;11.30;;;;;;;9.01;90.56;101102.16;1624794;86;20882;-78
2022/01/02 04:14:46;;;;;;;22.23;12.87;;;;;;;9.00;90.60;101103.02;1631550;86;21746;-78
2022/01/02 04:17:12;;;;;;;19.67;12.30;;;;;;;8.99;90.56;101088.41;1632510;86;20982;-78
2022/01/02 04:19:38;;;;;;;19.47;12.70;;;;;;;8.94;90.54;101076.80;1622410;88;20918;-79
2022/01/02 04:22:04;;;;;;;20.60;12.50;;;;;;;8.92;90.58;101073.37;1631192;87;20922;-79
2022/01/02 04:24:30;;;;;;;19.70;13.33;;;;;;;8.89;90.54;101064.34;1624752;86;20986;-79
2022/01/02 04:26:56;;;;;;;21.10;12.60;;;;;;;8.87;90.57;101047.59;1634846;86;20985;-79
2022/01/02 04:29:22;;;;;;;20.72;12.30;;;;;;;8.83;90.54;101046.34;1631511;88;20907;-79
2022/01/02 04:31:48;;;;;;;22.50;12.97;;;;;;;8.80;90.51;101049.78;1624382;88;20927;-78
2022/01/02 04:34:15;;;;;;;22.67;12.33;;;;;;;8.77;90.50;101046.34;1634646;86;22010;-78
2022/01/02 04:36:41;;;;;;;19.20;12.23;;;;;;;8.72;90.53;101047.64;1640488;85;27472;-79
2022/01/02 04:39:07;;;;;;;15.58;11.55;;;;;;;8.72;90.58;101038.62;1631259;88;20970;-79
2022/01/02 04:41:33;;;;;;;20.80;12.27;;;;;;;8.72;90.61;101032.61;1622238;88;22325;-79
2022/01/02 04:43:59;;;;;;;19.67;12.17;;;;;;;8.69;90.56;101024.88;1644881;86;20898;-79
2022/01/02 04:46:25;;;;;;;16.77;11.53;;;;;;;8.69;90.60;101024.88;1631283;88;20970;-79
2022/01/02 04:48:51;;;;;;;20.77;11.70;;;;;;;8.68;90.60;101021.87;1620072;88;20967;-78
2022/01/02 04:51:17;;;;;;;18.83;11.40;;;;;;;8.67;90.60;101002.11;1637564;86;20938;-78
2022/01/02 04:53:48;;;;;;;23.67;11.53;;;;;;;8.67;90.61;100990.51;1631635;88;21060;-78
2022/01/02 04:56:11;;;;;;;15.55;11.03;;;;;;;8.64;90.56;100984.92;1629653;85;20954;-78
2022/01/02 04:58:37;;;;;;;15.77;11.27;;;;;;;8.62;90.60;100993.09;1639534;85;20989;-78
2022/01/02 05:01:03;;;;;;;17.87;11.23;;;;;;;8.62;90.58;100995.67;1635334;85;20906;-78
2022/01/02 05:03:29;;;;;;;18.60;10.28;;;;;;;8.61;90.58;100984.50;1644516;85;21262;-78
2022/01/02 05:05:55;;;;;;;18.83;10.93;;;;;;;8.61;90.62;100980.63;1637802;87;22522;-78
2022/01/02 05:08:21;;;;;;;20.30;11.40;;;;;;;8.61;90.58;100967.75;1646572;86;20974;-79
2022/01/02 05:10:47;;;;;;;19.12;12.00;;;;;;;8.58;90.55;100956.16;1639292;86;20902;-79
2022/01/02 05:13:13;;;;;;;14.40;10.67;;;;;;;8.57;90.57;100960.88;1646526;85;20905;-79
2022/01/02 05:15:39;;;;;;;20.27;10.68;;;;;;;8.56;90.58;100965.61;1646486;86;20985;-79
2022/01/02 05:18:06;;;;;;;17.30;9.90;;;;;;;8.55;90.57;100963.03;1646571;87;20974;-79
2022/01/02 05:20:32;;;;;;;14.78;9.98;;;;;;;8.52;90.58;100960.03;1648568;85;21497;-79
2022/01/02 05:22:58;;;;;;;17.23;10.33;;;;;;;8.52;90.61;100963.90;1637413;87;20913;-79
2022/01/02 05:25:24;;;;;;;19.23;10.17;;;;;;;8.52;90.56;100966.91;1645655;85;21036;-79
2022/01/02 05:27:50;;;;;;;17.00;9.70;;;;;;;8.49;90.53;100961.33;1637717;86;20973;-79
2022/01/02 05:30:16;;;;;;;17.70;11.07;;;;;;;8.48;90.54;100967.77;1647728;85;20886;-79
2022/01/02 05:32:42;;;;;;;18.10;9.90;;;;;;;8.47;90.54;100959.61;1655646;85;20985;-79
2022/01/02 05:35:08;;;;;;;18.00;10.63;;;;;;;8.45;90.55;100966.05;1645150;86;21761;-79
2022/01/02 05:37:34;;;;;;;23.23;10.27;;;;;;;8.43;90.37;100959.19;1645097;87;20933;-79
2022/01/02 05:40:00;;;;;;;19.37;10.45;;;;;;;8.43;90.37;100959.19;1648047;85;21458;-79
2022/01/02 05:42:26;;;;;;;15.32;9.55;;;;;;;8.40;90.51;100956.19;1634158;87;20974;-79
2022/01/02 05:44:52;;;;;;;16.83;9.27;;;;;;;8.38;90.51;100947.60;1646406;86;20889;-79
2022/01/02 05:47:18;;;;;;;17.13;10.37;;;;;;;8.36;90.53;100948.03;1645989;85;21096;-79
2022/01/02 05:49:44;;;;;;;15.78;10.08;;;;;;;8.36;90.53;100940.30;1640997;85;21120;-79
2022/01/02 05:52:10;;;;;;;14.27;9.87;;;;;;;8.36;90.54;100932.58;1639882;86;21091;-79
2022/01/02 05:54:37;;;;;;;15.78;9.65;;;;;;;8.35;90.54;100923.12;1644179;86;21391;-79
2022/01/02 05:57:03;;;;;;;14.27;8.70;;;;;;;8.33;90.48;100914.55;1634435;85;21080;-79
2022/01/02 05:59:29;;;;;;;16.52;9.23;;;;;;;8.32;90.49;100905.53;1628359;88;22815;-79
2022/01/02 06:01:55;;;;;;;18.97;10.17;;;;;;;8.31;90.47;100896.94;1611739;88;21080;-79
2022/01/02 06:04:21;;;;;;;17.95;9.73;;;;;;;8.29;90.48;100896.95;1605498;88;21057;-78
2022/01/02 06:06:47;;;;;;;10.77;8.03;;;;;;;8.28;90.48;100884.92;1622510;87;20915;-78
2022/01/02 06:09:14;;;;;;;14.43;9.37;;;;;;;8.27;90.45;100886.22;1629212;87;21096;-78
2022/01/02 06:11:40;;;;;;;13.83;9.80;;;;;;;8.26;90.46;100889.66;1630821;86;21320;-78
2022/01/02 06:14:06;;;;;;;16.83;10.43;;;;;;;8.26;90.47;100889.22;1609234;88;21400;-78
2022/01/02 06:16:32;;;;;;;14.73;8.85;;;;;;;8.25;90.47;100888.80;1621639;88;21132;-78
2022/01/02 06:18:58;;;;;;;15.55;9.55;;;;;;;8.24;90.45;100878.06;1626926;87;21141;-78
2022/01/02 06:21:24;;;;;;;13.83;9.13;;;;;;;8.23;90.44;100872.91;1629502;86;21128;-78
2022/01/02 06:23:50;;;;;;;13.55;9.63;;;;;;;8.21;90.44;100889.66;1624283;87;21096;-78
2022/01/02 06:26:16;;;;;;;11.40;8.43;;;;;;;8.21;90.47;100899.97;1622394;86;20922;-78
2022/01/02 06:28:42;;;;;;;14.53;8.57;;;;;;;8.21;90.50;100904.26;1622866;86;21018;-78
2022/01/02 06:31:09;;;;;;;14.50;8.30;;;;;;;8.21;90.47;100911.98;1628812;87;21678;-78
2022/01/02 06:33:35;;;;;;;14.20;8.60;;;;;;;8.21;90.46;100915.85;1621024;87;21145;-78
2022/01/02 06:36:02;;;;;;;12.90;8.00;;;;;;;8.20;90.46;100902.55;1631510;87;20974;-78
2022/01/02 06:38:28;;;;;;;11.68;8.18;;;;;;;8.18;90.44;100901.26;1636683;86;21002;-78
2022/01/02 06:40:54;;;;;;;13.60;7.87;;;;;;;8.18;90.45;100899.11;1631234;86;20974;-78
2022/01/02 06:43:21;;;;;;;16.25;7.97;;;;;;;8.17;90.41;100884.52;1597891;86;20964;-78
2022/01/02 06:45:47;;;;;;;14.43;8.50;;;;;;;8.15;90.40;100868.20;1626807;87;20986;-78
2022/01/02 06:48:13;;;;;;;12.60;7.87;;;;;;;8.13;90.35;100851.90;1629752;86;21474;-78
2022/01/02 06:50:40;;;;;;;14.95;8.00;;;;;;;8.11;90.34;100848.04;1630060;88;20982;-78
2022/01/02 06:53:06;;;;;;;15.25;7.25;;;;;;;8.08;90.30;100848.47;1617020;86;21005;-78
2022/01/02 06:55:32;;;;;;;13.40;7.30;;;;;;;8.06;90.31;100846.33;1627173;86;21561;-78
2022/01/02 06:57:58;;;;;;;9.40;6.20;;;;;;;8.02;90.29;100851.92;1620654;87;20903;-78
2022/01/02 07:00:25;;;;;;;11.07;6.80;;;;;;;8.02;90.28;100852.34;1631863;86;21226;-78
2022/01/02 07:02:51;;;;;;;7.72;6.08;;;;;;;8.01;90.30;100851.92;1629746;86;21423;-78
2022/01/02 07:05:17;;;;;;;8.70;5.27;;;;;;;8.02;90.35;100845.91;1608719;88;20934;-78
2022/01/02 07:07:46;;;;;;;9.78;6.12;;;;;;;8.01;90.32;100830.89;1633744;86;20987;-79
2022/01/02 07:10:15;;;;;;;9.63;6.03;;;;;;;8.01;90.30;100836.47;1629736;88;20966;-79
2022/01/02 07:12:41;;;;;;;10.45;6.25;;;;;;;7.99;90.29;100819.73;1621632;88;21085;-79
2022/01/02 07:15:09;;;;;;;6.83;5.22;;;;;;;7.99;90.34;100832.61;1629181;87;21161;-78
2022/01/02 07:17:36;;;;;;;9.65;5.90;;;;;;;8.01;90.36;100831.32;1632205;86;20930;-78
2022/01/02 07:20:07;;;;;;;10.08;5.58;;;;;;;8.00;90.32;100829.61;1619568;86;21021;-78
2022/01/02 07:22:33;;;;;;;12.20;6.40;;;;;;;8.01;90.34;100827.45;1626368;86;20979;-78
2022/01/02 07:25:00;;;;;;;10.05;5.60;;;;;;;8.03;90.39;100825.73;1634712;86;20942;-78
2022/01/02 07:27:26;;;;;;;11.10;6.90;;;;;;;8.05;90.40;100830.45;1622947;86;20910;-78
2022/01/02 07:29:54;;;;;;;9.23;5.63;;;;;;;8.08;90.42;100827.88;1628343;88;20973;-78
2022/01/02 07:32:20;;;;;;;7.83;6.00;;;;;;;8.10;90.40;100806.84;1631205;86;21601;-78
2022/01/02 07:34:46;;;;;;;10.40;5.77;;;;;;;8.13;90.38;100799.95;1624760;86;20911;-78
2022/01/02 07:37:12;;;;;;;9.40;6.20;;;;;;;8.15;90.38;100787.93;1608794;86;20973;-78
2022/01/02 07:39:38;;;;;;;9.50;5.55;;;;;;;8.16;90.35;100785.78;1620636;86;21006;-78
2022/01/02 07:42:05;;;;;;;10.60;7.07;;;;;;;8.19;90.38;100791.36;1632195;86;20966;-80
2022/01/02 07:44:31;;;;;;;14.00;8.73;;;;;;;8.21;90.38;100776.75;1628912;86;21666;-80
2022/01/02 07:46:57;;;;;;;13.13;9.23;;;;;;;8.23;90.37;100761.72;1628657;86;21498;-80
2022/01/02 07:49:23;;;;;;;13.63;8.87;;;;;;;8.24;90.34;100734.23;1631723;86;20971;-80
2022/01/02 07:51:49;;;;;;;10.67;6.90;;;;;;;8.24;90.25;100727.80;1627573;87;20950;-80
2022/01/02 07:54:15;;;;;;;9.80;6.30;;;;;;;8.21;90.25;100721.37;1637657;86;21660;-80
2022/01/02 07:56:42;;;;;;;14.30;7.00;;;;;;;8.21;90.27;100741.55;1628301;86;20910;-80
2022/01/02 07:59:08;;;;;;;11.45;6.78;;;;;;;8.22;90.29;100758.72;1629418;88;21159;-80
2022/01/02 08:01:34;;;;;;;8.68;6.75;;;;;;;8.12;90.25;100754.89;1630134;86;21101;-76
2022/01/02 08:04:00;;;;;;;11.40;8.47;;;;;;;8.24;90.33;100787.90;1635106;86;21451;-78
2022/01/02 08:06:26;;;;;;;15.07;8.27;;;;;;;8.25;90.34;100775.45;1624962;86;21353;-77
2022/01/02 08:08:52;;;;;;;13.27;7.90;;;;;;;8.28;90.39;100768.14;1630205;86;21036;-77
2022/01/02 08:11:19;;;;;;;9.70;6.90;;;;;;;8.30;90.35;100762.12;1622152;87;20927;-77
2022/01/02 08:13:45;;;;;;;13.05;6.80;;;;;;;8.32;90.37;100759.50;1628988;85;21574;-77
2022/01/02 08:16:12;;;;;;;10.00;6.50;;;;;;;8.34;90.30;100744.07;1587790;88;21168;-77
2022/01/02 08:18:38;;;;;;;;;;;;;;;8.35;90.33;100742.77;1624601;86;21371;-77
2022/01/02 08:21:04;;;;;;;;;;;;;;;8.37;90.33;100735.89;1624190;86;20119;-77
2022/01/02 08:23:31;;;;;;;9.23;6.60;;;;;;;8.38;90.26;100724.72;1631058;86;20155;-77
2022/01/02 08:25:57;;;;;;;14.50;7.10;;;;;;;8.39;90.29;100704.53;1626238;86;20946;-77
2022/01/02 08:28:23;;;;;;;12.68;6.50;;;;;;;8.41;90.31;100713.11;1626885;87;21531;-77
2022/01/02 08:30:49;;;;;;;10.82;6.80;;;;;;;8.42;90.29;100711.39;1627771;86;20962;-77
2022/01/02 08:33:16;;;;;;;10.18;6.58;;;;;;;8.43;90.30;100713.10;1606923;87;20994;-77
2022/01/02 08:35:46;;;;;;;12.53;7.35;;;;;;;8.46;90.30;100711.80;1630622;88;20967;-77
2022/01/02 08:38:12;;;;;;;11.18;7.03;;;;;;;8.47;90.31;100701.48;1602184;88;20946;-77
2022/01/02 08:40:40;;;;;;;16.20;7.83;;;;;;;8.50;90.33;100712.20;1631508;86;20986;-77
2022/01/02 08:43:08;;;;;;;11.63;6.85;;;;;;;8.51;90.32;100723.80;1630241;88;20986;-77
2022/01/02 08:45:35;;;;;;;10.93;8.63;;;;;;;8.54;90.28;100724.21;1629504;86;21044;-82
2022/01/02 08:48:02;;;;;;;10.43;7.20;;;;;;;8.55;90.29;100703.58;1630262;86;21154;-81
2022/01/02 08:50:30;;;;;;;12.68;7.80;;;;;;;8.58;90.31;100698.41;1626738;86;21167;-81
2022/01/02 08:52:56;;;;;;;13.15;7.30;;;;;;;8.58;90.29;100695.83;1634797;85;21112;-81
2022/01/02 08:55:22;;;;;;;10.98;7.95;;;;;;;8.61;90.28;100706.12;1627631;86;21112;-81
2022/01/02 08:57:48;;;;;;;14.97;7.23;;;;;;;8.64;90.29;100702.67;1627176;87;21125;-81
2022/01/02 09:00:16;;;;;;;9.70;7.00;;;;;;;8.68;90.29;100694.05;1603409;88;21393;-81
2022/01/02 09:02:42;;;;;;;11.18;7.00;;;;;;;8.71;90.29;100704.34;1627115;88;21181;-81
2022/01/02 09:05:09;;;;;;;8.50;6.80;;;;;;;8.75;90.29;100711.62;1631110;86;21149;-81
2022/01/02 09:07:36;;;;;;;8.43;6.72;;;;;;;8.77;90.25;100713.75;1630124;88;21092;-81
2022/01/02 09:10:04;;;;;;;;;;;;;;;8.79;90.26;100712.02;1632449;86;21141;-81
2022/01/02 09:12:30;;;;;;;10.13;6.75;;;;;;;8.82;90.24;100706.41;1626545;86;20256;-81
2022/01/02 09:14:56;;;;;;;10.53;6.43;;;;;;;8.84;90.26;100705.08;1627237;86;21010;-80
2022/01/02 09:17:22;;;;;;;10.03;6.25;;;;;;;8.86;90.26;100701.63;1627479;88;21567;-82
2022/01/02 09:19:52;;;;;;;7.45;6.35;;;;;;;8.88;90.23;100698.59;1629953;88;21092;-81
2022/01/02 09:22:19;;;;;;;9.55;6.72;;;;;;;8.91;90.26;100693.84;1625737;86;21136;-81
2022/01/02 09:24:45;;;;;;;14.10;7.58;;;;;;;8.93;90.24;100686.95;1630434;87;21127;-81
2022/01/02 09:27:11;;;;;;;9.43;6.53;;;;;;;8.95;90.23;100678.77;1626437;86;20910;-81
2022/01/02 09:29:37;;;;;;;10.47;6.20;;;;;;;8.95;90.19;100679.62;1623506;85;21404;-81
2022/01/02 09:32:05;;;;;;;11.68;6.40;;;;;;;9.01;90.28;100663.69;1630870;86;21093;-74
2022/01/02 09:34:31;;;;;;;10.03;5.87;;;;;;;9.02;90.21;100664.10;1624590;86;21029;-76
2022/01/02 09:36:57;;;;;;;9.33;6.93;;;;;;;9.04;90.23;100670.96;1621046;86;20934;-79
2022/01/02 09:39:23;;;;;;;12.83;6.60;;;;;;;9.06;90.18;100670.52;1621961;86;20966;-78
2022/01/02 09:41:49;;;;;;;11.30;6.73;;;;;;;9.06;90.17;100671.80;1605455;88;21615;-78
2022/01/02 09:44:15;;;;;;;7.50;6.37;;;;;;;9.09;90.23;100666.61;1630103;86;21026;-78
2022/01/02 09:46:41;;;;;;;5.63;5.03;;;;;;;9.11;90.21;100661.44;1638358;86;22705;-78
2022/01/02 09:49:09;;;;;;;8.98;6.30;;;;;;;9.14;90.23;100657.11;1625147;87;20922;-78
2022/01/02 09:51:35;;;;;;;10.08;6.40;;;;;;;9.16;90.22;100645.48;1630098;87;21064;-79
2022/01/02 09:54:02;;;;;;;9.28;5.72;;;;;;;9.17;90.17;100639.45;1634766;86;21459;-78
2022/01/02 09:56:28;;;;;;;10.18;6.22;;;;;;;9.17;90.15;100642.04;1641543;86;21132;-77
2022/01/02 09:58:54;;;;;;;11.60;6.27;;;;;;;9.05;90.16;100604.32;1621560;86;21065;-76
2022/01/02 10:01:25;;;;;;;10.40;6.35;;;;;;;9.23;90.18;100631.66;1622557;86;21003;-76
2022/01/02 10:03:55;;;;;;;11.18;6.72;;;;;;;9.26;90.18;100626.03;1635714;86;21009;-79
2022/01/02 10:06:40;;;;;;;12.50;6.95;;;;;;;9.27;90.15;100608.83;1631396;85;20950;-73
2022/01/02 10:09:34;;;;;;;9.30;7.00;;;;;;;9.28;90.11;100588.61;1625006;88;20970;-83
2022/01/02 10:12:30;;;;;;;11.97;6.45;;;;;;;9.29;90.11;100589.87;1631192;86;21066;-80
2022/01/02 10:15:16;;;;;;;;;;;;;;;9.31;90.07;100579.97;1630709;86;21647;-81
2022/01/02 10:18:02;;;;;;;;;;;;;;;9.31;90.02;100578.25;1627875;86;20147;-81
2022/01/02 10:20:42;;;;;;;12.18;6.67;;;;;;;9.30;90.01;100577.83;1625703;87;20562;-81
2022/01/02 10:23:21;;;;;;;10.43;5.97;;;;;;;9.27;90.00;100581.30;1627480;86;21564;-81
2022/01/02 10:26:03;;;;;;;11.93;6.33;;;;;;;9.28;90.07;100573.13;1625900;86;21529;-81
2022/01/02 10:28:37;;;;;;;11.43;5.95;;;;;;;9.27;90.04;100573.56;1630925;86;21512;-81
2022/01/02 10:31:15;;;;;;;11.43;5.97;;;;;;;9.29;90.07;100565.80;1618424;88;21033;-81
2022/01/02 10:33:57;;;;;;;8.55;5.60;;;;;;;9.28;90.03;100564.09;1630058;88;21610;-81
2022/01/02 10:36:31;;;;;;;9.38;6.10;;;;;;;9.26;90.02;100561.97;1622249;86;21556;-80
2022/01/02 10:39:08;;;;;;;8.40;6.15;;;;;;;9.27;89.97;100566.25;1619944;88;21080;-80
2022/01/02 10:41:45;;;;;;;8.35;6.92;;;;;;;9.28;90.05;100547.32;1629587;87;21593;-80
2022/01/02 10:44:34;;;;;;;10.98;6.42;;;;;;;9.28;89.98;100549.91;1631035;86;21498;-80
2022/01/02 10:47:24;;;;;;;7.90;5.90;;;;;;;9.29;90.02;100555.48;1623620;86;21573;-80
2022/01/02 10:50:04;;;;;;;10.25;5.85;;;;;;;9.29;89.99;100552.90;1605677;88;21800;-80
2022/01/02 10:52:45;;;;;;;11.63;7.03;;;;;;;9.31;90.00;100562.77;1620557;86;21085;-80
2022/01/02 10:55:24;;;;;;;9.53;6.58;;;;;;;9.32;89.98;100563.63;1623604;86;21617;-80
2022/01/02 10:57:53;;;;;;;8.25;6.25;;;;;;;9.32;89.96;100559.75;1621344;87;21588;-80
2022/01/02 11:00:24;;;;;;;10.83;6.40;;;;;;;9.31;89.99;100539.55;1526037;85;5001202;-80
2022/01/02 11:02:51;;;;;;;8.70;6.47;;;;;;;9.27;89.96;100532.71;1611718;88;21096;-80
2022/01/02 11:05:21;;;;;;;16.10;7.10;;;;;;;9.32;89.99;100533.52;1631947;86;21620;-80
2022/01/02 11:07:54;;;;;;;9.63;6.10;;;;;;;9.33;89.99;100527.91;1630615;86;21499;-80
2022/01/02 11:10:23;;;;;;;9.25;6.33;;;;;;;9.33;89.98;100530.06;1616787;88;21025;-80
2022/01/02 11:12:51;;;;;;;7.47;5.78;;;;;;;9.33;89.94;100521.47;1628768;86;21016;-80
2022/01/02 11:15:22;;;;;;;8.38;6.87;;;;;;;9.36;89.98;100511.92;1626558;86;21569;-80
2022/01/02 11:17:49;;;;;;;8.88;6.58;;;;;;;9.37;89.98;100497.30;1627290;86;21545;-80
2022/01/02 11:20:23;;;;;;;9.23;6.42;;;;;;;9.38;89.98;100489.53;1625525;86;21129;-80
2022/01/02 11:23:06;;;;;;;11.48;5.87;;;;;;;9.39;89.97;100478.34;1629581;87;21092;-80
2022/01/02 11:26:09;;;;;;;9.58;6.42;;;;;;;9.41;89.98;100477.88;1629187;86;21116;-80
2022/01/02 11:28:46;;;;;;;9.38;6.37;;;;;;;9.44;89.99;100475.70;1625873;86;21929;-80
2022/01/02 11:31:32;;;;;;;9.55;6.20;;;;;;;9.47;89.98;100471.78;1634191;86;21567;-80
2022/01/02 11:33:59;;;;;;;7.65;6.12;;;;;;;9.47;89.95;100474.37;1626365;86;21644;-80
2022/01/02 11:36:31;;;;;;;10.48;6.62;;;;;;;9.48;89.94;100467.04;1627052;86;21057;-80
2022/01/02 11:39:09;;;;;;;12.10;7.35;;;;;;;9.48;89.92;100464.02;1630121;86;21132;-80